Time;durP1;ratioP1;P1;durP2;ratioP2;P2;SDS_P1;SDS_P2;PMS_P1;PMS_P2;Temp;Humidity;BMP_temperature;BMP_pressure;BME280_temperature;BME280_humidity;BME280_pressure;Samples;Min_cycle;Max_cycle;Signal;HPM_P1;HPM_P2
2024/01/10 00:00:30;;;;;;;16.97;6.97;;;-2.60;99.90;;;;;;7291936;19;20609;-84
2024/01/10 00:02:55;;;;;;;16.47;6.93;;;-2.60;99.90;;;;;;7311122;19;20184;-84
2024/01/10 00:05:24;;;;;;;21.10;7.80;;;-2.40;99.90;;;;;;7288881;19;20532;-83
2024/01/10 00:07:50;;;;;;;17.87;7.70;;;-2.40;99.90;;;;;;7288588;19;20228;-84
2024/01/10 00:10:16;;;;;;;17.13;7.07;;;-2.40;99.90;;;;;;7289094;19;20577;-84
2024/01/10 00:12:44;;;;;;;18.93;7.47;;;-2.40;99.90;;;;;;7286975;19;20585;-83
2024/01/10 00:15:10;;;;;;;19.27;8.00;;;-2.40;99.90;;;;;;7289844;19;20189;-83
2024/01/10 00:17:36;;;;;;;15.63;7.07;;;-2.50;99.90;;;;;;7287599;19;20369;-83
2024/01/10 00:20:02;;;;;;;15.03;6.43;;;-2.50;99.90;;;;;;7287122;19;20196;-83
2024/01/10 00:22:31;;;;;;;16.93;6.83;;;-2.50;99.90;;;;;;7309253;19;20720;-84
2024/01/10 00:24:57;;;;;;;17.37;6.83;;;-2.50;99.90;;;;;;7284392;19;20183;-84
2024/01/10 00:27:23;;;;;;;15.23;6.20;;;-2.60;99.90;;;;;;7286407;19;20203;-83
2024/01/10 00:29:48;;;;;;;16.97;6.93;;;-2.60;99.90;;;;;;7289279;19;20546;-83
2024/01/10 00:32:15;;;;;;;17.87;7.40;;;-2.60;99.90;;;;;;7288918;19;20662;-84
2024/01/10 00:34:46;;;;;;;15.43;6.57;;;-2.60;99.90;;;;;;7284675;19;20218;-83
2024/01/10 00:37:14;;;;;;;18.10;6.60;;;-2.70;99.90;;;;;;7286692;19;20183;-83
2024/01/10 00:39:40;;;;;;;17.17;7.30;;;-2.80;99.90;;;;;;7288337;19;20184;-83
2024/01/10 00:42:09;;;;;;;17.67;7.17;;;-2.80;99.90;;;;;;7288992;19;20616;-83
2024/01/10 00:44:36;;;;;;;16.93;7.23;;;-2.70;99.90;;;;;;7295915;19;20192;-83
2024/01/10 00:47:02;;;;;;;16.00;6.57;;;-2.70;99.90;;;;;;7296741;19;20197;-83
2024/01/10 00:49:32;;;;;;;16.47;7.10;;;-2.60;99.90;;;;;;7306956;19;20192;-82
2024/01/10 00:51:58;;;;;;;15.50;6.30;;;-2.50;99.90;;;;;;7319811;19;20197;-83
2024/01/10 00:54:24;;;;;;;15.10;6.63;;;-2.60;99.90;;;;;;7290932;19;20188;-83
2024/01/10 00:56:50;;;;;;;18.03;7.03;;;-2.60;99.90;;;;;;7290177;19;20662;-84
2024/01/10 00:59:16;;;;;;;13.43;6.40;;;-2.70;99.90;;;;;;7289831;19;20212;-83
2024/01/10 01:01:44;;;;;;;14.43;6.20;;;-2.80;99.90;;;;;;7287667;19;21325;-83
2024/01/10 01:04:10;;;;;;;15.87;6.77;;;-2.80;99.90;;;;;;7289952;19;20546;-83
2024/01/10 01:06:36;;;;;;;16.37;6.20;;;-2.80;99.90;;;;;;7290057;19;20186;-83
2024/01/10 01:09:05;;;;;;;15.93;6.57;;;-2.90;99.90;;;;;;7289403;19;20188;-83
2024/01/10 01:11:30;;;;;;;16.90;6.30;;;-2.90;99.90;;;;;;7290508;19;20186;-83
2024/01/10 01:13:56;;;;;;;16.37;6.50;;;-3.00;99.90;;;;;;7311792;19;20182;-84
2024/01/10 01:16:25;;;;;;;13.97;6.33;;;-3.00;99.90;;;;;;7287763;19;20181;-84
2024/01/10 01:18:51;;;;;;;15.67;6.50;;;-2.90;99.90;;;;;;7283709;19;20201;-83
2024/01/10 01:21:17;;;;;;;14.33;6.27;;;-2.80;99.90;;;;;;7287978;19;20196;-83
2024/01/10 01:23:43;;;;;;;16.60;7.03;;;-2.70;99.90;;;;;;7286644;19;20185;-83
2024/01/10 01:26:09;;;;;;;14.50;6.43;;;-2.70;99.90;;;;;;7288129;19;20738;-83
2024/01/10 01:28:37;;;;;;;16.67;7.07;;;-2.60;99.90;;;;;;7285188;19;20208;-83
2024/01/10 01:31:03;;;;;;;18.20;6.73;;;-2.60;99.90;;;;;;7284061;19;20296;-83
2024/01/10 01:33:30;;;;;;;17.23;7.07;;;-2.70;99.90;;;;;;7305573;19;20203;-82
2024/01/10 01:35:56;;;;;;;14.43;6.10;;;-2.80;99.90;;;;;;7306444;19;20187;-83
2024/01/10 01:38:23;;;;;;;14.30;6.70;;;-2.80;99.90;;;;;;7292411;19;20257;-82
2024/01/10 01:40:52;;;;;;;15.50;6.77;;;-2.70;99.90;;;;;;7293069;19;20212;-83
2024/01/10 01:43:24;;;;;;;14.60;6.23;;;-2.70;99.90;;;;;;7294035;19;20495;-83
2024/01/10 01:45:57;;;;;;;17.23;6.87;;;-2.70;99.90;;;;;;7293525;19;20189;-83
2024/01/10 01:48:25;;;;;;;16.83;7.03;;;-2.70;99.90;;;;;;7291779;19;20203;-83
2024/01/10 01:50:55;;;;;;;16.53;6.57;;;-2.90;99.90;;;;;;7289892;19;20206;-84
2024/01/10 01:53:21;;;;;;;16.63;6.50;;;-3.10;99.90;;;;;;7290315;19;20225;-82
2024/01/10 01:55:47;;;;;;;18.30;7.13;;;-3.10;99.90;;;;;;7293421;19;20285;-83
2024/01/10 01:58:13;;;;;;;17.37;7.63;;;-3.30;99.90;;;;;;7293333;19;20237;-84
2024/01/10 02:00:40;;;;;;;17.53;6.93;;;-3.40;99.90;;;;;;7290549;19;20200;-83
2024/01/10 02:03:08;;;;;;;15.97;6.63;;;-3.40;99.90;;;;;;7290646;19;20573;-83
2024/01/10 02:05:37;;;;;;;17.57;7.53;;;-3.40;99.90;;;;;;7291501;19;20209;-83
2024/01/10 02:08:04;;;;;;;18.67;6.77;;;-3.40;99.90;;;;;;7292739;19;20196;-83
2024/01/10 02:10:30;;;;;;;17.33;7.33;;;-3.20;99.90;;;;;;7307182;19;20603;-83
2024/01/10 02:12:56;;;;;;;18.10;7.43;;;-3.40;99.90;;;;;;7309298;19;20556;-83
2024/01/10 02:15:22;;;;;;;16.37;7.33;;;-3.40;99.90;;;;;;7292464;19;20262;-83
2024/01/10 02:17:50;;;;;;;16.57;7.00;;;-3.20;99.90;;;;;;7290980;19;20647;-84
2024/01/10 02:20:17;;;;;;;16.87;7.10;;;-3.30;99.90;;;;;;7291924;19;20191;-83
2024/01/10 02:22:43;;;;;;;17.13;7.40;;;-3.20;99.90;;;;;;7293490;19;20199;-80
2024/01/10 02:25:13;;;;;;;16.73;7.03;;;-3.20;99.90;;;;;;7292850;19;20583;-84
2024/01/10 02:27:42;;;;;;;17.77;7.13;;;-3.10;99.90;;;;;;7288503;19;20229;-83
2024/01/10 02:30:10;;;;;;;19.70;7.50;;;-2.90;99.90;;;;;;7286697;19;20205;-84
2024/01/10 02:32:36;;;;;;;17.60;7.10;;;-2.90;99.90;;;;;;7288756;19;20190;-82
2024/01/10 02:35:03;;;;;;;16.93;7.03;;;-2.90;99.90;;;;;;7287548;19;20567;-83
2024/01/10 02:37:29;;;;;;;17.93;7.10;;;-3.00;99.90;;;;;;7309253;19;20697;-83
2024/01/10 02:39:54;;;;;;;16.63;7.43;;;-3.20;99.90;;;;;;7287228;19;20195;-83
2024/01/10 02:42:20;;;;;;;17.53;7.60;;;-3.20;99.90;;;;;;7288195;19;20965;-83
2024/01/10 02:44:46;;;;;;;16.27;7.47;;;-3.20;99.90;;;;;;7288921;19;20187;-84
2024/01/10 02:47:12;;;;;;;15.87;6.90;;;-3.20;99.90;;;;;;7287210;19;20201;-84
2024/01/10 02:49:39;;;;;;;16.33;7.23;;;-3.10;99.90;;;;;;7286750;19;20191;-84
2024/01/10 02:52:05;;;;;;;19.60;8.07;;;-3.10;99.90;;;;;;7288581;19;20187;-84
2024/01/10 02:54:31;;;;;;;14.47;6.43;;;-3.10;99.90;;;;;;7291258;19;20191;-82
2024/01/10 02:56:56;;;;;;;18.87;7.47;;;-3.20;99.90;;;;;;7312595;19;20499;-83
2024/01/10 02:59:22;;;;;;;17.73;7.53;;;-3.10;99.90;;;;;;7287759;19;20942;-84
2024/01/10 03:01:48;;;;;;;18.60;7.27;;;-3.00;99.90;;;;;;7288983;19;20275;-84
2024/01/10 03:04:14;;;;;;;17.90;7.50;;;-2.90;99.90;;;;;;7288214;19;20247;-83
2024/01/10 03:06:40;;;;;;;21.20;8.90;;;-2.90;99.90;;;;;;7290672;19;20199;-83
2024/01/10 03:09:06;;;;;;;18.07;8.43;;;-2.80;99.90;;;;;;7290633;19;20630;-83
2024/01/10 03:11:35;;;;;;;19.20;8.07;;;-2.90;99.90;;;;;;7290689;19;20176;-83
2024/01/10 03:14:07;;;;;;;19.90;9.23;;;-3.00;99.90;;;;;;7293385;19;20552;-83
2024/01/10 03:16:33;;;;;;;22.43;9.00;;;-3.00;99.90;;;;;;7285664;19;20191;-84
2024/01/10 03:18:59;;;;;;;21.57;8.87;;;-3.00;99.90;;;;;;7304961;19;20247;-84
2024/01/10 03:21:26;;;;;;;18.53;7.87;;;-3.00;99.90;;;;;;7288196;19;20185;-83
2024/01/10 03:23:56;;;;;;;20.13;8.10;;;-3.00;99.90;;;;;;7286565;19;20215;-84
2024/01/10 03:26:22;;;;;;;18.83;8.03;;;-3.00;99.90;;;;;;7287435;19;20233;-84
2024/01/10 03:28:48;;;;;;;20.87;8.87;;;-3.00;99.90;;;;;;7293109;19;20214;-84
2024/01/10 03:31:14;;;;;;;17.20;7.90;;;-3.20;99.90;;;;;;7292796;19;20265;-83
2024/01/10 03:33:40;;;;;;;20.70;7.37;;;-3.30;99.90;;;;;;7285667;19;20210;-83
2024/01/10 03:36:08;;;;;;;21.57;7.17;;;-3.30;99.90;;;;;;7286367;19;20194;-83
2024/01/10 03:38:34;;;;;;;18.70;8.53;;;-3.50;99.90;;;;;;7287724;19;20198;-83
2024/01/10 03:41:00;;;;;;;17.67;7.57;;;-3.50;99.90;;;;;;7303840;19;20187;-82
2024/01/10 03:43:26;;;;;;;16.77;7.23;;;-3.60;99.90;;;;;;7309444;19;20194;-83
2024/01/10 03:45:51;;;;;;;18.70;8.10;;;-3.90;99.90;;;;;;7288015;19;20195;-84
2024/01/10 03:48:17;;;;;;;21.87;8.13;;;-4.10;99.90;;;;;;7288999;19;20547;-84
2024/01/10 03:50:43;;;;;;;17.53;7.93;;;-4.00;99.90;;;;;;7287614;19;21014;-84
2024/01/10 03:53:08;;;;;;;15.87;7.20;;;-3.90;99.90;;;;;;7285106;19;20859;-84
2024/01/10 03:55:34;;;;;;;20.27;7.90;;;-3.80;99.90;;;;;;7288999;19;20188;-83
2024/01/10 03:58:00;;;;;;;17.53;7.20;;;-3.80;99.90;;;;;;7299696;19;20184;-83
2024/01/10 04:00:26;;;;;;;15.60;7.80;;;-3.70;99.90;;;;;;7303197;19;20211;-84
2024/01/10 04:02:52;;;;;;;18.83;8.70;;;-3.70;99.90;;;;;;7286055;19;20188;-84
2024/01/10 04:05:20;;;;;;;17.90;7.90;;;-3.80;99.90;;;;;;7286687;19;20239;-84
2024/01/10 04:07:46;;;;;;;20.73;7.67;;;-3.70;99.90;;;;;;7285444;19;20195;-83
2024/01/10 04:10:13;;;;;;;16.83;6.93;;;-3.70;99.90;;;;;;7283605;19;20209;-84
2024/01/10 04:12:43;;;;;;;15.50;7.27;;;-3.80;99.90;;;;;;7284532;19;20195;-84
2024/01/10 04:15:09;;;;;;;20.70;9.70;;;-3.90;99.90;;;;;;7284310;19;20838;-84
2024/01/10 04:17:35;;;;;;;19.63;8.27;;;-3.90;99.90;;;;;;7285232;19;20231;-83
2024/01/10 04:20:02;;;;;;;17.83;8.20;;;-3.80;99.90;;;;;;7288066;19;20191;-83
2024/01/10 04:22:27;;;;;;;19.17;8.10;;;-3.60;99.90;;;;;;7305912;19;20552;-84
2024/01/10 04:24:53;;;;;;;17.40;7.53;;;-3.80;99.90;;;;;;7284673;19;20196;-83
2024/01/10 04:27:19;;;;;;;19.27;7.50;;;-3.80;99.90;;;;;;7286219;19;20629;-84
2024/01/10 04:29:45;;;;;;;17.23;7.53;;;-3.70;99.90;;;;;;7285859;19;20195;-83
2024/01/10 04:32:11;;;;;;;21.00;7.73;;;-3.70;99.90;;;;;;7285328;19;20528;-83
2024/01/10 04:34:36;;;;;;;16.57;7.50;;;-3.70;99.90;;;;;;7284851;19;20210;-83
2024/01/10 04:37:02;;;;;;;17.77;7.43;;;-3.70;99.90;;;;;;7284748;19;20195;-83
2024/01/10 04:39:29;;;;;;;18.67;8.23;;;-3.60;99.90;;;;;;7306216;19;20219;-84
2024/01/10 04:41:55;;;;;;;19.03;8.00;;;-3.50;99.90;;;;;;7285500;19;20291;-83
2024/01/10 04:44:21;;;;;;;17.40;8.13;;;-3.60;99.90;;;;;;7285234;19;20290;-84
2024/01/10 04:46:46;;;;;;;17.00;7.43;;;-3.50;99.90;;;;;;7284143;19;20752;-84
2024/01/10 04:49:14;;;;;;;17.80;7.57;;;-3.50;99.90;;;;;;7283618;19;21185;-84
2024/01/10 04:51:39;;;;;;;18.30;7.57;;;-3.60;99.90;;;;;;7282724;19;20294;-83
2024/01/10 04:54:05;;;;;;;17.03;7.57;;;-3.60;99.90;;;;;;7283983;19;20263;-83
2024/01/10 04:56:31;;;;;;;17.67;7.50;;;-3.60;99.90;;;;;;7290246;19;20667;-83
2024/01/10 04:58:59;;;;;;;17.67;7.60;;;-3.50;99.90;;;;;;7304335;19;20183;-82
2024/01/10 05:01:25;;;;;;;17.37;7.80;;;-3.60;99.90;;;;;;7294756;19;20216;-83
2024/01/10 05:03:51;;;;;;;18.20;7.97;;;-3.50;99.90;;;;;;7283395;19;20180;-83
2024/01/10 05:06:17;;;;;;;19.93;8.17;;;-3.40;99.90;;;;;;7283196;19;20191;-83
2024/01/10 05:08:42;;;;;;;20.00;8.10;;;-3.40;99.90;;;;;;7283678;19;20195;-83
2024/01/10 05:11:08;;;;;;;18.37;7.93;;;-3.40;99.90;;;;;;7282588;19;20208;-83
2024/01/10 05:13:35;;;;;;;18.70;7.60;;;-3.40;99.90;;;;;;7281970;19;20258;-83
2024/01/10 05:16:01;;;;;;;16.50;7.60;;;-3.40;99.90;;;;;;7294501;19;20195;-81
2024/01/10 05:18:26;;;;;;;19.67;8.57;;;-3.50;99.90;;;;;;7301781;19;20187;-83
2024/01/10 05:20:52;;;;;;;19.70;8.70;;;-3.50;99.90;;;;;;7281880;19;20310;-83
2024/01/10 05:23:18;;;;;;;18.07;8.20;;;-3.50;99.90;;;;;;7281151;19;20189;-84
2024/01/10 05:25:44;;;;;;;17.47;7.90;;;-3.40;99.90;;;;;;7283479;19;20179;-82
2024/01/10 05:28:09;;;;;;;17.57;8.00;;;-3.40;99.90;;;;;;7282660;19;20179;-82
2024/01/10 05:30:35;;;;;;;18.77;8.90;;;-3.20;99.90;;;;;;7283515;19;20206;-83
2024/01/10 05:33:01;;;;;;;17.17;7.77;;;-3.30;99.90;;;;;;7290485;19;20191;-83
2024/01/10 05:35:27;;;;;;;17.27;7.57;;;-3.40;99.90;;;;;;7305469;19;20178;-83
2024/01/10 05:37:52;;;;;;;19.73;7.87;;;-3.50;99.90;;;;;;7281644;19;20183;-83
2024/01/10 05:40:18;;;;;;;21.17;8.50;;;-3.60;99.90;;;;;;7282164;19;20183;-84
2024/01/10 05:42:44;;;;;;;20.80;8.20;;;-3.50;99.90;;;;;;7283541;19;20191;-84
2024/01/10 05:45:10;;;;;;;18.33;7.83;;;-3.40;99.90;;;;;;7281227;19;20242;-83
2024/01/10 05:47:36;;;;;;;17.90;7.63;;;-3.40;99.90;;;;;;7281907;19;20226;-84
2024/01/10 05:50:06;;;;;;;20.07;7.17;;;-3.60;99.90;;;;;;7280912;19;20244;-83
2024/01/10 05:52:33;;;;;;;18.97;8.33;;;-3.70;99.90;;;;;;7280088;19;20181;-82
2024/01/10 05:55:01;;;;;;;20.80;8.40;;;-3.70;99.90;;;;;;7302359;19;20177;-83
2024/01/10 05:57:27;;;;;;;19.57;8.03;;;-3.70;99.90;;;;;;7281839;19;20198;-83
2024/01/10 05:59:56;;;;;;;16.90;7.00;;;-3.60;99.90;;;;;;7281834;19;20651;-83
2024/01/10 06:02:24;;;;;;;24.80;8.70;;;-3.60;99.90;;;;;;7282455;19;20203;-84
2024/01/10 06:04:50;;;;;;;20.10;8.17;;;-3.50;99.90;;;;;;7282979;19;21849;-83
2024/01/10 06:07:20;;;;;;;19.27;8.00;;;-3.50;99.90;;;;;;7283903;19;20182;-84
2024/01/10 06:09:47;;;;;;;17.57;8.27;;;-3.60;99.90;;;;;;7284730;19;20660;-84
2024/01/10 06:12:13;;;;;;;20.17;8.90;;;-3.50;99.90;;;;;;7282948;19;20190;-85
2024/01/10 06:14:39;;;;;;;18.73;8.73;;;-3.50;99.90;;;;;;7284658;19;20191;-84
2024/01/10 06:17:05;;;;;;;19.73;8.63;;;-3.40;99.90;;;;;;7281263;19;20239;-83
2024/01/10 06:19:31;;;;;;;23.10;8.23;;;-3.40;99.90;;;;;;7289586;19;20304;-83
2024/01/10 06:21:58;;;;;;;19.77;8.20;;;-3.40;99.90;;;;;;7306609;19;20190;-83
2024/01/10 06:24:24;;;;;;;21.00;7.97;;;-3.60;99.90;;;;;;7288919;19;20670;-83
2024/01/10 06:26:50;;;;;;;19.90;9.17;;;-3.50;99.90;;;;;;7288746;19;20198;-81
2024/01/10 06:29:16;;;;;;;19.77;8.87;;;-3.40;99.90;;;;;;7288441;19;20211;-82
2024/01/10 06:31:43;;;;;;;20.13;8.67;;;-3.30;99.90;;;;;;7291675;19;20254;-83
2024/01/10 06:34:09;;;;;;;21.80;9.30;;;-3.20;99.90;;;;;;7290019;19;20191;-83
2024/01/10 06:36:35;;;;;;;24.30;9.37;;;-3.10;99.90;;;;;;7287734;19;20193;-82
2024/01/10 06:39:01;;;;;;;19.77;8.97;;;-3.10;99.90;;;;;;7299883;19;20188;-81
2024/01/10 06:41:27;;;;;;;20.67;8.53;;;-3.50;99.90;;;;;;7308790;19;20183;-83
2024/01/10 06:43:53;;;;;;;22.37;8.90;;;-3.90;99.90;;;;;;7289035;19;21026;-82
2024/01/10 06:46:20;;;;;;;21.07;9.40;;;-4.20;99.90;;;;;;7297144;19;20201;-81
2024/01/10 06:48:46;;;;;;;22.50;9.90;;;-4.30;99.90;;;;;;7292842;19;20230;-82
2024/01/10 06:51:15;;;;;;;21.77;9.53;;;-4.20;99.90;;;;;;7289019;19;20228;-84
2024/01/10 06:53:41;;;;;;;20.90;9.07;;;-4.20;99.90;;;;;;7286471;19;20190;-82
2024/01/10 06:56:09;;;;;;;18.73;8.20;;;-4.20;99.90;;;;;;7285123;19;20224;-82
2024/01/10 06:58:35;;;;;;;20.30;9.37;;;-4.10;99.90;;;;;;7285921;19;20193;-82
2024/01/10 07:01:04;;;;;;;23.90;8.60;;;-4.00;99.90;;;;;;7295872;19;20197;-81
2024/01/10 07:03:29;;;;;;;22.03;8.77;;;-3.90;99.90;;;;;;7307453;19;20206;-82
2024/01/10 07:05:57;;;;;;;23.87;10.40;;;-3.80;99.90;;;;;;7292182;19;20538;-83
2024/01/10 07:08:22;;;;;;;19.27;8.87;;;-4.00;99.90;;;;;;7291947;19;20224;-82
2024/01/10 07:10:48;;;;;;;26.87;12.67;;;-4.20;99.90;;;;;;7285207;19;20703;-81
2024/01/10 07:13:14;;;;;;;23.63;9.70;;;-4.20;99.90;;;;;;7286729;19;20258;-83
2024/01/10 07:15:40;;;;;;;22.00;10.90;;;-4.20;99.90;;;;;;7285248;19;20209;-84
2024/01/10 07:18:06;;;;;;;24.87;9.93;;;-4.20;99.90;;;;;;7286439;19;20207;-83
2024/01/10 07:20:32;;;;;;;24.10;9.67;;;-4.10;99.90;;;;;;7291652;19;20283;-82
2024/01/10 07:22:59;;;;;;;19.90;8.80;;;-4.10;99.90;;;;;;7308135;19;20187;-82
2024/01/10 07:25:25;;;;;;;19.07;8.20;;;-4.00;99.90;;;;;;7286104;19;20196;-82
2024/01/10 07:27:51;;;;;;;22.63;9.17;;;-4.00;99.90;;;;;;7283327;19;20190;-82
2024/01/10 07:30:17;;;;;;;23.23;8.67;;;-3.90;99.90;;;;;;7286271;19;20194;-82
2024/01/10 07:32:44;;;;;;;17.97;8.00;;;-3.90;99.90;;;;;;7282442;19;20200;-82
2024/01/10 07:35:12;;;;;;;18.17;8.63;;;-4.00;99.90;;;;;;7285522;19;20200;-81
2024/01/10 07:37:42;;;;;;;22.00;8.33;;;-4.00;99.90;;;;;;7287510;19;20185;-81
2024/01/10 07:40:10;;;;;;;20.87;8.90;;;-4.00;99.90;;;;;;7287077;19;20191;-82
2024/01/10 07:42:37;;;;;;;18.40;8.07;;;-3.90;99.90;;;;;;7284678;19;20183;-82
2024/01/10 07:45:06;;;;;;;23.27;8.43;;;-3.70;99.90;;;;;;7287558;19;20197;-81
2024/01/10 07:47:34;;;;;;;18.13;8.33;;;-3.60;99.90;;;;;;7297439;19;20180;-81
2024/01/10 07:50:00;;;;;;;21.90;8.63;;;-3.70;99.90;;;;;;7308237;19;20216;-82
2024/01/10 07:52:26;;;;;;;21.53;8.43;;;-3.60;99.90;;;;;;7285502;19;20229;-82
2024/01/10 07:54:52;;;;;;;20.50;8.73;;;-3.50;99.90;;;;;;7282548;19;21913;-81
2024/01/10 07:57:19;;;;;;;21.13;8.77;;;-3.40;99.90;;;;;;7284050;19;20205;-81
2024/01/10 07:59:45;;;;;;;25.00;9.17;;;-3.40;99.90;;;;;;7283855;19;20207;-83
2024/01/10 08:02:11;;;;;;;19.50;8.77;;;-3.30;99.90;;;;;;7283928;19;20207;-82
2024/01/10 08:04:37;;;;;;;19.07;8.63;;;-3.20;99.90;;;;;;7285687;19;20191;-81
2024/01/10 08:07:03;;;;;;;23.00;8.77;;;-3.10;99.90;;;;;;7283548;19;20280;-80
2024/01/10 08:09:29;;;;;;;21.43;8.80;;;-3.10;99.90;;;;;;7303322;19;20742;-81
2024/01/10 08:11:55;;;;;;;23.77;8.50;;;-3.10;99.90;;;;;;7281445;19;20694;-82
2024/01/10 08:14:20;;;;;;;20.43;8.53;;;-3.20;99.90;;;;;;7281589;19;20194;-81
2024/01/10 08:16:46;;;;;;;22.17;9.30;;;-3.40;99.90;;;;;;7281122;19;20195;-80
2024/01/10 08:19:12;;;;;;;20.40;8.67;;;-3.40;99.90;;;;;;7281804;19;20761;-81
2024/01/10 08:21:38;;;;;;;19.87;9.17;;;-3.30;99.90;;;;;;7281856;19;20189;-81
2024/01/10 08:24:04;;;;;;;20.50;8.53;;;-3.30;99.90;;;;;;7280643;19;20208;-80
2024/01/10 08:26:30;;;;;;;21.77;8.93;;;-3.40;99.90;;;;;;7300444;19;20188;-81
2024/01/10 08:28:56;;;;;;;21.40;9.00;;;-3.30;99.90;;;;;;7276962;19;20374;-81
2024/01/10 08:31:22;;;;;;;22.77;9.43;;;-3.30;99.90;;;;;;7280334;19;20556;-81
2024/01/10 08:33:48;;;;;;;17.90;8.40;;;-3.20;99.90;;;;;;7282682;19;20203;-81
2024/01/10 08:36:14;;;;;;;26.50;9.17;;;-3.00;99.90;;;;;;7282231;19;20208;-81
2024/01/10 08:38:41;;;;;;;19.10;9.40;;;-2.90;99.90;;;;;;7282730;19;20205;-80
2024/01/10 08:41:11;;;;;;;22.97;9.70;;;-2.90;99.90;;;;;;7283381;19;20193;-81
2024/01/10 08:43:37;;;;;;;21.50;8.47;;;-3.10;99.90;;;;;;7283453;19;20217;-81
2024/01/10 08:46:04;;;;;;;20.67;8.73;;;-3.20;99.90;;;;;;7284874;19;20234;-80
2024/01/10 08:48:29;;;;;;;20.70;9.07;;;-3.10;99.90;;;;;;7306371;19;20197;-81
2024/01/10 08:50:56;;;;;;;22.37;9.30;;;-3.10;99.90;;;;;;7283117;19;20186;-81
2024/01/10 08:53:24;;;;;;;19.93;8.80;;;-3.20;99.90;;;;;;7284737;19;20205;-82
2024/01/10 08:55:50;;;;;;;20.50;7.97;;;-3.20;99.90;;;;;;7284513;19;20303;-80
2024/01/10 08:58:16;;;;;;;22.30;8.23;;;-3.10;99.90;;;;;;7284657;19;20195;-80
2024/01/10 09:00:41;;;;;;;21.60;9.40;;;-3.10;99.90;;;;;;7284417;19;20198;-80
2024/01/10 09:03:08;;;;;;;23.13;9.23;;;-3.10;99.90;;;;;;7283170;19;20196;-80
2024/01/10 09:05:34;;;;;;;20.13;8.97;;;-3.20;99.90;;;;;;7283348;19;20221;-80
2024/01/10 09:08:00;;;;;;;19.97;8.87;;;-3.20;99.90;;;;;;7304700;19;20186;-80
2024/01/10 09:10:27;;;;;;;20.60;8.47;;;-3.10;99.90;;;;;;7282103;19;20202;-81
2024/01/10 09:12:53;;;;;;;19.10;8.27;;;-3.00;99.90;;;;;;7282135;19;20255;-81
2024/01/10 09:15:19;;;;;;;23.20;9.43;;;-2.90;99.90;;;;;;7283547;19;20215;-81
2024/01/10 09:17:45;;;;;;;21.47;10.07;;;-2.90;99.90;;;;;;7281554;19;20187;-81
2024/01/10 09:20:12;;;;;;;21.73;8.93;;;-2.80;99.90;;;;;;7282097;19;20270;-81
2024/01/10 09:22:38;;;;;;;23.77;8.80;;;-2.70;99.90;;;;;;7282279;19;20225;-80
2024/01/10 09:25:05;;;;;;;20.77;8.97;;;-2.60;99.90;;;;;;7283042;19;20189;-80
2024/01/10 09:27:35;;;;;;;19.37;8.43;;;-2.50;99.90;;;;;;7302668;19;20305;-80
2024/01/10 09:30:08;;;;;;;18.50;8.57;;;-2.40;99.90;;;;;;7278829;19;20217;-81
2024/01/10 09:32:35;;;;;;;21.03;8.70;;;-2.30;99.90;;;;;;7259493;19;20219;-81
2024/01/10 09:35:01;;;;;;;22.10;9.20;;;-2.40;99.90;;;;;;7292943;19;20632;-82
2024/01/10 09:37:27;;;;;;;22.27;9.80;;;-2.30;99.90;;;;;;7280817;19;20191;-82
2024/01/10 09:39:53;;;;;;;19.00;9.27;;;-2.30;99.90;;;;;;7279541;19;21002;-81
2024/01/10 09:42:21;;;;;;;19.87;8.87;;;-2.10;99.90;;;;;;7281007;19;20779;-81
2024/01/10 09:44:47;;;;;;;21.13;8.97;;;-2.10;99.90;;;;;;7278329;19;20609;-81
2024/01/10 09:47:16;;;;;;;18.00;8.47;;;-2.00;99.90;;;;;;7282276;19;20947;-81
2024/01/10 09:49:44;;;;;;;20.23;8.70;;;-2.00;99.90;;;;;;7281508;19;20198;-81
2024/01/10 09:52:15;;;;;;;24.83;9.70;;;-1.90;99.90;;;;;;7280962;19;20185;-81
2024/01/10 09:54:42;;;;;;;21.33;8.53;;;-1.80;99.90;;;;;;7282416;19;20234;-81
2024/01/10 09:57:09;;;;;;;19.17;7.97;;;-1.70;99.90;;;;;;7283840;19;20304;-81
2024/01/10 09:59:35;;;;;;;24.03;9.13;;;-1.60;99.90;;;;;;7284891;19;20195;-81
2024/01/10 10:02:04;;;;;;;25.20;9.70;;;-1.50;99.90;;;;;;7309858;19;20536;-81
2024/01/10 10:04:30;;;;;;;18.83;7.70;;;-1.40;99.90;;;;;;7287093;19;20196;-81
2024/01/10 10:07:01;;;;;;;21.87;8.90;;;-1.50;99.90;;;;;;7287025;19;20197;-81
2024/01/10 10:09:29;;;;;;;20.73;9.67;;;-1.60;99.90;;;;;;7287374;19;20237;-81
2024/01/10 10:11:55;;;;;;;22.43;8.83;;;-1.60;99.90;;;;;;7290265;19;20722;-81
2024/01/10 10:14:22;;;;;;;22.50;9.20;;;-1.50;99.90;;;;;;7286288;19;20192;-82
2024/01/10 10:16:48;;;;;;;21.33;9.40;;;-1.40;99.90;;;;;;7288620;19;20220;-81
2024/01/10 10:19:23;;;;;;;21.30;8.93;;;-1.40;99.90;;;;;;7286022;19;20188;-81
2024/01/10 10:21:48;;;;;;;22.40;9.03;;;-1.30;99.90;;;;;;7285979;19;20205;-83
2024/01/10 10:24:14;;;;;;;22.23;8.93;;;-1.10;99.90;;;;;;7284060;19;20193;-83
2024/01/10 10:26:41;;;;;;;21.17;8.70;;;-0.60;99.90;;;;;;7287116;19;20193;-81
2024/01/10 10:29:07;;;;;;;21.33;8.60;;;0.30;99.90;;;;;;7286184;19;20268;-83
2024/01/10 10:31:33;;;;;;;21.77;8.60;;;1.70;99.90;;;;;;7297726;19;20280;-81
2024/01/10 10:34:02;;;;;;;21.20;9.37;;;2.90;99.90;;;;;;7309427;19;20692;-83
2024/01/10 10:36:30;;;;;;;17.67;9.03;;;3.40;99.90;;;;;;7287823;19;20193;-83
2024/01/10 10:38:55;;;;;;;19.07;8.90;;;4.30;99.90;;;;;;7286774;19;20788;-83
2024/01/10 10:41:21;;;;;;;19.77;9.23;;;4.40;99.90;;;;;;7286702;19;20614;-83
2024/01/10 10:43:50;;;;;;;21.10;9.97;;;4.50;99.90;;;;;;7287297;19;20733;-83
2024/01/10 10:46:16;;;;;;;18.20;9.07;;;4.20;99.90;;;;;;7286200;19;20189;-86
2024/01/10 10:48:42;;;;;;;17.07;8.67;;;4.40;99.90;;;;;;7284456;19;20220;-81
2024/01/10 10:51:11;;;;;;;20.50;9.67;;;5.20;99.90;;;;;;7286003;19;20682;-80
2024/01/10 10:53:45;;;;;;;20.30;9.77;;;5.00;99.90;;;;;;7286038;19;20527;-80
2024/01/10 10:56:12;;;;;;;19.77;8.70;;;4.50;99.90;;;;;;7286203;19;20188;-80
2024/01/10 10:58:40;;;;;;;18.60;8.93;;;4.60;99.90;;;;;;7287254;19;20191;-81
2024/01/10 11:01:08;;;;;;;19.67;9.17;;;4.80;99.90;;;;;;7285922;19;20196;-83
2024/01/10 11:03:47;;;;;;;21.77;8.90;;;4.40;99.90;;;;;;7296532;19;20616;-83
2024/01/10 11:06:13;;;;;;;19.87;8.97;;;4.00;99.90;;;;;;7286805;19;20306;-83
2024/01/10 11:08:54;;;;;;;20.93;9.23;;;4.10;99.90;;;;;;7284420;19;20303;-84
2024/01/10 11:11:54;;;;;;;18.93;9.50;;;4.70;99.90;;;;;;7289524;19;20214;-85
2024/01/10 11:14:34;;;;;;;19.80;9.10;;;6.00;99.90;;;;;;7182588;19;2004376;-83
2024/01/10 11:17:39;;;;;;;18.97;9.70;;;5.90;99.90;;;;;;7287549;19;20196;-83
2024/01/10 11:20:18;;;;;;;18.17;9.83;;;6.20;99.90;;;;;;7164982;19;2004523;-84
2024/01/10 11:23:02;;;;;;;17.70;8.83;;;6.30;99.80;;;;;;7287314;19;20213;-84
2024/01/10 11:25:30;;;;;;;21.53;9.77;;;7.10;99.90;;;;;;7288677;19;20285;-83
2024/01/10 11:27:56;;;;;;;21.70;9.40;;;7.10;97.70;;;;;;7287689;19;20201;-83
2024/01/10 11:30:37;;;;;;;17.10;8.60;;;6.80;98.20;;;;;;7286204;19;20660;-84
2024/01/10 11:33:33;;;;;;;17.80;9.20;;;6.60;97.80;;;;;;7283528;19;20701;-83
2024/01/10 11:36:20;;;;;;;19.03;8.87;;;6.10;97.70;;;;;;7286864;19;20192;-82
2024/01/10 11:38:59;;;;;;;22.43;10.10;;;5.60;99.30;;;;;;7183221;19;2004816;-82
2024/01/10 11:41:40;;;;;;;18.33;8.77;;;5.60;98.30;;;;;;7286356;19;20544;-83
2024/01/10 11:44:11;;;;;;;19.47;8.90;;;5.80;98.00;;;;;;7264772;19;20273;-83
2024/01/10 11:46:43;;;;;;;19.23;9.57;;;5.70;97.70;;;;;;7284755;19;20181;-82
2024/01/10 11:49:09;;;;;;;19.63;9.57;;;5.40;97.60;;;;;;7285278;19;20611;-82
2024/01/10 11:51:38;;;;;;;18.50;8.90;;;4.80;98.40;;;;;;7301772;19;20184;-80
2024/01/10 11:54:05;;;;;;;18.33;8.97;;;4.40;99.80;;;;;;7304394;19;20181;-81
2024/01/10 11:56:44;;;;;;;23.67;9.77;;;4.20;99.90;;;;;;7284326;19;20681;-82
2024/01/10 11:59:11;;;;;;;20.80;9.77;;;4.00;99.90;;;;;;7182011;19;2004584;-83
2024/01/10 12:01:38;;;;;;;21.97;9.37;;;3.60;99.90;;;;;;7284095;19;20282;-81
2024/01/10 12:04:04;;;;;;;18.93;9.03;;;3.20;99.90;;;;;;7309195;19;20181;-82
2024/01/10 12:06:31;;;;;;;23.67;9.60;;;3.20;99.90;;;;;;7285007;19;20531;-82
2024/01/10 12:08:59;;;;;;;20.57;9.03;;;3.20;99.90;;;;;;7282173;19;20643;-82
2024/01/10 12:11:25;;;;;;;31.43;15.97;;;3.10;99.90;;;;;;7284885;19;20212;-83
2024/01/10 12:13:51;;;;;;;20.33;9.43;;;3.20;99.90;;;;;;7284896;19;20217;-82
2024/01/10 12:16:17;;;;;;;22.27;10.37;;;3.20;99.90;;;;;;7285618;19;20190;-82
2024/01/10 12:18:43;;;;;;;18.63;9.23;;;3.20;99.90;;;;;;7287223;19;20311;-82
2024/01/10 12:21:10;;;;;;;21.37;10.33;;;2.90;99.90;;;;;;7287407;19;20644;-82
2024/01/10 12:23:38;;;;;;;19.10;8.90;;;2.90;99.90;;;;;;7294216;19;20186;-83
2024/01/10 12:26:13;;;;;;;22.70;10.10;;;2.90;99.90;;;;;;7306644;19;20641;-82
2024/01/10 12:28:42;;;;;;;27.40;11.87;;;3.10;99.90;;;;;;7180558;19;2004607;-83
2024/01/10 12:31:08;;;;;;;21.80;9.90;;;3.20;99.90;;;;;;7283008;19;20580;-83
2024/01/10 12:33:36;;;;;;;20.93;9.77;;;3.40;99.90;;;;;;7304655;19;20187;-83
2024/01/10 12:36:06;;;;;;;22.43;9.73;;;3.60;99.90;;;;;;7284413;19;20189;-83
2024/01/10 12:38:33;;;;;;;22.13;10.20;;;3.70;99.90;;;;;;7281674;19;20736;-83